Palmetto, FL (34221)

2:33 PM EDT on July 25, 2016 (GMT -0400)
Coach House MHP | | Change Station

Elev 27 ft 27.56 °N, 82.54 °W | Updated 1 minute ago

Overcast
Overcast
83.5 °F
Feels Like 89 °F
N
7.4
Wind Variable Wind from SSW
Gusts 8.9 mph

Today
High -- | Low -- °F
--% Chance of Precip.
Yesterday
High -- | Low -- °F
Precip. -- in
Pressure 30.05 in
Visibility 3.0 miles
Clouds Scattered Clouds 3800 ft
Mostly Cloudy 7500 ft
Overcast 9000 ft
Heat Index 89 °F
Dew Point 72 °F
Humidity 68%
Rainfall 0.00 in
Snow Depth Not available.
6:50 AM 8:23 PM
Waning Gibbous, 63% visible
SPECI KSRQ 251806Z AUTO 26008KT 3SM -RA SCT038 BKN075 OVC090 28/22 A3005 RMK AO2 P0012 T02780222
Pressure 30.05 in
Visibility 3.0 miles
Clouds Scattered Clouds 3800 ft
Mostly Cloudy 7500 ft
Overcast 9000 ft
Heat Index 89 °F
Dew Point 72 °F
Humidity 68%
Rainfall 0.00 in
Snow Depth Not available.
6:50 AM 8:23 PM
Waning Gibbous, 63% visible
SPECI KSRQ 251806Z AUTO 26008KT 3SM -RA SCT038 BKN075 OVC090 28/22 A3005 RMK AO2 P0012 T02780222
Record highs are possible for parts of the Northeast Monday and Tuesday, as parts of the central U.S. take a little breather from the worst of summer's dog day heat.

Expansive high pressure in the upper atmosphere will focus on parts of the East and West this week, sending heat indices well into the triple digits from the Mid-Atlantic states into the South.

10-Day Weather Forecast

Almanac

Astronomy

Jul. 25, 2016 Rise Set
Actual Time
Civil Twilight
Nautical Twilight
Astronomical Twilight
Moon
Length of Visible Light
Length of Day
Tomorrow will be .
, % of the Moon is Illuminated

Today's Extremes

State Highs State Lows

Community

WunderPhotos

Upload Photos

1,927,368 photos uploaded!

WunderBlog® & News

Nearby

Air Quality

  Air Quality AQ Index Pollutant
Not available.

Snow Depth

Station Depth Elevation

Earthquake Activity

City Distance Mag. Time & Date
Minimum magnitude displayed is 2.5.

Coastal Water Temperatures

Place Temperature

Stations

Nearby Weather Stations

Station Location Temp. Windchill Dew Point Humidity Wind Precip. Elev Updated Type
                   

Watches & Warnings

There are currently no watches in effect.